sensor_id;sensor_type;location;lat;lon;timestamp;P1;durP1;ratioP1;P2;durP2;ratioP2
15049;SDS011;7622;42.724;23.250;2023-03-01T00:00:05;4.87;;;3.30;;
15049;SDS011;7622;42.724;23.250;2023-03-01T00:02:34;3.53;;;3.23;;
15049;SDS011;7622;42.724;23.250;2023-03-01T00:05:02;3.53;;;3.10;;
15049;SDS011;7622;42.724;23.250;2023-03-01T00:07:30;4.43;;;3.80;;
15049;SDS011;7622;42.724;23.250;2023-03-01T00:09:56;4.77;;;4.10;;
15049;SDS011;7622;42.724;23.250;2023-03-01T00:12:23;4.20;;;3.70;;
15049;SDS011;7622;42.724;23.250;2023-03-01T00:14:50;3.70;;;3.40;;
15049;SDS011;7622;42.724;23.250;2023-03-01T00:17:18;3.37;;;3.07;;
15049;SDS011;7622;42.724;23.250;2023-03-01T00:19:45;4.23;;;3.63;;
15049;SDS011;7622;42.724;23.250;2023-03-01T00:22:12;3.63;;;3.30;;
15049;SDS011;7622;42.724;23.250;2023-03-01T00:24:38;3.87;;;3.33;;
15049;SDS011;7622;42.724;23.250;2023-03-01T00:27:05;4.40;;;3.33;;
15049;SDS011;7622;42.724;23.250;2023-03-01T00:29:32;4.00;;;3.70;;
15049;SDS011;7622;42.724;23.250;2023-03-01T00:31:59;3.40;;;3.10;;
15049;SDS011;7622;42.724;23.250;2023-03-01T00:34:27;2.00;;;1.90;;
15049;SDS011;7622;42.724;23.250;2023-03-01T00:36:54;3.00;;;2.80;;
15049;SDS011;7622;42.724;23.250;2023-03-01T00:39:30;2.80;;;2.60;;
15049;SDS011;7622;42.724;23.250;2023-03-01T00:41:58;2.80;;;2.60;;
15049;SDS011;7622;42.724;23.250;2023-03-01T00:44:25;2.97;;;2.77;;
15049;SDS011;7622;42.724;23.250;2023-03-01T00:46:53;3.07;;;2.87;;
15049;SDS011;7622;42.724;23.250;2023-03-01T00:49:20;2.50;;;2.30;;
15049;SDS011;7622;42.724;23.250;2023-03-01T00:51:50;4.60;;;2.57;;
15049;SDS011;7622;42.724;23.250;2023-03-01T00:54:17;2.00;;;1.90;;
15049;SDS011;7622;42.724;23.250;2023-03-01T00:56:44;3.93;;;2.37;;
15049;SDS011;7622;42.724;23.250;2023-03-01T00:59:10;2.73;;;2.53;;
15049;SDS011;7622;42.724;23.250;2023-03-01T01:01:37;2.23;;;2.03;;
15049;SDS011;7622;42.724;23.250;2023-03-01T01:04:05;2.53;;;2.30;;
15049;SDS011;7622;42.724;23.250;2023-03-01T01:06:34;2.57;;;2.37;;
15049;SDS011;7622;42.724;23.250;2023-03-01T01:09:05;2.10;;;2.00;;
15049;SDS011;7622;42.724;23.250;2023-03-01T01:11:33;2.67;;;2.47;;
15049;SDS011;7622;42.724;23.250;2023-03-01T01:14:02;2.47;;;2.33;;
15049;SDS011;7622;42.724;23.250;2023-03-01T01:16:29;2.93;;;2.73;;
15049;SDS011;7622;42.724;23.250;2023-03-01T01:18:56;2.70;;;2.60;;
15049;SDS011;7622;42.724;23.250;2023-03-01T01:21:24;2.20;;;2.10;;
15049;SDS011;7622;42.724;23.250;2023-03-01T01:23:52;2.60;;;2.37;;
15049;SDS011;7622;42.724;23.250;2023-03-01T01:26:21;1.97;;;1.77;;
15049;SDS011;7622;42.724;23.250;2023-03-01T01:28:49;1.93;;;1.83;;
15049;SDS011;7622;42.724;23.250;2023-03-01T01:31:17;2.83;;;2.63;;
15049;SDS011;7622;42.724;23.250;2023-03-01T01:33:45;2.37;;;2.27;;
15049;SDS011;7622;42.724;23.250;2023-03-01T01:36:12;2.57;;;2.47;;
15049;SDS011;7622;42.724;23.250;2023-03-01T01:38:39;1.30;;;1.27;;
15049;SDS011;7622;42.724;23.250;2023-03-01T01:41:07;1.80;;;1.70;;
15049;SDS011;7622;42.724;23.250;2023-03-01T01:43:38;2.47;;;2.10;;
15049;SDS011;7622;42.724;23.250;2023-03-01T01:46:10;1.40;;;1.37;;
15049;SDS011;7622;42.724;23.250;2023-03-01T01:48:46;1.80;;;1.70;;
15049;SDS011;7622;42.724;23.250;2023-03-01T01:51:19;2.90;;;1.80;;
15049;SDS011;7622;42.724;23.250;2023-03-01T01:53:51;2.03;;;1.93;;
15049;SDS011;7622;42.724;23.250;2023-03-01T01:56:21;2.23;;;2.03;;
15049;SDS011;7622;42.724;23.250;2023-03-01T01:58:53;2.47;;;2.27;;
15049;SDS011;7622;42.724;23.250;2023-03-01T02:01:21;1.97;;;1.87;;
15049;SDS011;7622;42.724;23.250;2023-03-01T02:03:48;2.13;;;2.03;;
15049;SDS011;7622;42.724;23.250;2023-03-01T02:06:18;2.00;;;1.90;;
15049;SDS011;7622;42.724;23.250;2023-03-01T02:08:48;1.97;;;1.87;;
15049;SDS011;7622;42.724;23.250;2023-03-01T02:11:18;1.80;;;1.70;;
15049;SDS011;7622;42.724;23.250;2023-03-01T02:13:47;1.73;;;1.63;;
15049;SDS011;7622;42.724;23.250;2023-03-01T02:16:16;2.67;;;2.00;;
15049;SDS011;7622;42.724;23.250;2023-03-01T02:18:43;2.40;;;2.30;;
15049;SDS011;7622;42.724;23.250;2023-03-01T02:21:14;2.17;;;2.07;;
15049;SDS011;7622;42.724;23.250;2023-03-01T02:23:52;2.60;;;2.20;;
15049;SDS011;7622;42.724;23.250;2023-03-01T02:26:23;2.53;;;2.33;;
15049;SDS011;7622;42.724;23.250;2023-03-01T02:28:57;3.27;;;3.07;;
15049;SDS011;7622;42.724;23.250;2023-03-01T02:31:25;4.37;;;3.77;;
15049;SDS011;7622;42.724;23.250;2023-03-01T02:34:11;2.77;;;2.57;;
15049;SDS011;7622;42.724;23.250;2023-03-01T02:36:40;2.83;;;2.57;;
15049;SDS011;7622;42.724;23.250;2023-03-01T02:39:14;2.97;;;2.63;;
15049;SDS011;7622;42.724;23.250;2023-03-01T02:41:44;2.90;;;2.70;;
15049;SDS011;7622;42.724;23.250;2023-03-01T02:44:14;3.20;;;3.00;;
15049;SDS011;7622;42.724;23.250;2023-03-01T02:46:42;2.67;;;2.47;;
15049;SDS011;7622;42.724;23.250;2023-03-01T02:49:21;2.90;;;2.70;;
15049;SDS011;7622;42.724;23.250;2023-03-01T02:52:01;3.03;;;2.83;;
15049;SDS011;7622;42.724;23.250;2023-03-01T02:54:40;3.23;;;3.03;;
15049;SDS011;7622;42.724;23.250;2023-03-01T02:57:12;2.67;;;2.47;;
15049;SDS011;7622;42.724;23.250;2023-03-01T02:59:41;3.37;;;3.10;;
15049;SDS011;7622;42.724;23.250;2023-03-01T03:02:18;2.83;;;2.63;;
15049;SDS011;7622;42.724;23.250;2023-03-01T03:05:01;2.83;;;2.37;;
15049;SDS011;7622;42.724;23.250;2023-03-01T03:07:31;2.30;;;2.20;;
15049;SDS011;7622;42.724;23.250;2023-03-01T03:09:59;2.87;;;1.87;;
15049;SDS011;7622;42.724;23.250;2023-03-01T03:12:26;1.90;;;1.80;;
15049;SDS011;7622;42.724;23.250;2023-03-01T03:14:54;2.10;;;1.90;;
15049;SDS011;7622;42.724;23.250;2023-03-01T03:17:21;1.60;;;1.50;;
15049;SDS011;7622;42.724;23.250;2023-03-01T03:19:48;1.73;;;1.63;;
15049;SDS011;7622;42.724;23.250;2023-03-01T03:22:15;2.03;;;1.83;;
15049;SDS011;7622;42.724;23.250;2023-03-01T03:24:42;2.60;;;2.20;;
15049;SDS011;7622;42.724;23.250;2023-03-01T03:27:08;2.70;;;2.50;;
15049;SDS011;7622;42.724;23.250;2023-03-01T03:29:35;2.07;;;1.93;;
15049;SDS011;7622;42.724;23.250;2023-03-01T03:32:04;2.30;;;2.10;;
15049;SDS011;7622;42.724;23.250;2023-03-01T03:34:31;2.83;;;2.40;;
15049;SDS011;7622;42.724;23.250;2023-03-01T03:36:57;3.23;;;2.83;;
15049;SDS011;7622;42.724;23.250;2023-03-01T03:39:24;3.03;;;2.83;;
15049;SDS011;7622;42.724;23.250;2023-03-01T03:41:52;2.00;;;1.90;;
15049;SDS011;7622;42.724;23.250;2023-03-01T03:44:19;1.97;;;1.87;;
15049;SDS011;7622;42.724;23.250;2023-03-01T03:46:46;2.40;;;2.20;;
15049;SDS011;7622;42.724;23.250;2023-03-01T03:49:15;2.67;;;2.57;;
15049;SDS011;7622;42.724;23.250;2023-03-01T03:51:41;2.80;;;2.60;;
15049;SDS011;7622;42.724;23.250;2023-03-01T03:54:08;3.07;;;2.87;;
15049;SDS011;7622;42.724;23.250;2023-03-01T03:56:35;2.80;;;2.33;;
15049;SDS011;7622;42.724;23.250;2023-03-01T03:59:02;2.93;;;2.73;;
15049;SDS011;7622;42.724;23.250;2023-03-01T04:01:29;2.90;;;2.70;;
15049;SDS011;7622;42.724;23.250;2023-03-01T04:03:56;2.50;;;2.33;;
15049;SDS011;7622;42.724;23.250;2023-03-01T04:06:30;2.60;;;2.40;;
15049;SDS011;7622;42.724;23.250;2023-03-01T04:08:57;2.17;;;2.00;;
15049;SDS011;7622;42.724;23.250;2023-03-01T04:11:25;1.53;;;1.43;;
15049;SDS011;7622;42.724;23.250;2023-03-01T04:13:54;1.00;;;1.00;;
15049;SDS011;7622;42.724;23.250;2023-03-01T04:16:22;1.50;;;1.10;;
15049;SDS011;7622;42.724;23.250;2023-03-01T04:18:50;1.17;;;1.07;;
15049;SDS011;7622;42.724;23.250;2023-03-01T04:21:17;1.40;;;1.20;;
15049;SDS011;7622;42.724;23.250;2023-03-01T04:23:46;1.27;;;1.17;;
15049;SDS011;7622;42.724;23.250;2023-03-01T04:26:17;1.10;;;1.10;;
15049;SDS011;7622;42.724;23.250;2023-03-01T04:28:45;1.53;;;1.20;;
15049;SDS011;7622;42.724;23.250;2023-03-01T04:31:15;2.47;;;1.63;;
15049;SDS011;7622;42.724;23.250;2023-03-01T04:33:44;0.93;;;0.93;;
15049;SDS011;7622;42.724;23.250;2023-03-01T04:36:12;1.60;;;1.23;;
15049;SDS011;7622;42.724;23.250;2023-03-01T04:38:40;1.00;;;1.00;;
15049;SDS011;7622;42.724;23.250;2023-03-01T04:41:10;1.63;;;1.03;;
15049;SDS011;7622;42.724;23.250;2023-03-01T04:43:37;1.03;;;1.03;;
15049;SDS011;7622;42.724;23.250;2023-03-01T04:46:05;1.20;;;1.10;;
15049;SDS011;7622;42.724;23.250;2023-03-01T04:48:34;3.60;;;1.47;;
15049;SDS011;7622;42.724;23.250;2023-03-01T04:51:01;3.30;;;2.93;;
15049;SDS011;7622;42.724;23.250;2023-03-01T04:53:29;2.40;;;2.20;;
15049;SDS011;7622;42.724;23.250;2023-03-01T04:55:56;1.93;;;1.83;;
15049;SDS011;7622;42.724;23.250;2023-03-01T04:58:25;2.17;;;1.57;;
15049;SDS011;7622;42.724;23.250;2023-03-01T05:00:53;1.50;;;1.40;;
15049;SDS011;7622;42.724;23.250;2023-03-01T05:03:21;1.43;;;1.33;;
15049;SDS011;7622;42.724;23.250;2023-03-01T05:05:49;1.40;;;1.30;;
15049;SDS011;7622;42.724;23.250;2023-03-01T05:08:17;1.00;;;1.00;;
15049;SDS011;7622;42.724;23.250;2023-03-01T05:10:46;1.00;;;1.00;;
15049;SDS011;7622;42.724;23.250;2023-03-01T05:13:15;1.13;;;1.13;;
15049;SDS011;7622;42.724;23.250;2023-03-01T05:15:47;4.43;;;1.50;;
15049;SDS011;7622;42.724;23.250;2023-03-01T05:18:19;1.87;;;1.77;;
15049;SDS011;7622;42.724;23.250;2023-03-01T05:20:46;2.87;;;2.57;;
15049;SDS011;7622;42.724;23.250;2023-03-01T05:23:13;1.90;;;1.80;;
15049;SDS011;7622;42.724;23.250;2023-03-01T05:25:40;1.83;;;1.73;;
15049;SDS011;7622;42.724;23.250;2023-03-01T05:28:08;3.60;;;2.03;;
15049;SDS011;7622;42.724;23.250;2023-03-01T05:30:40;1.30;;;1.30;;
15049;SDS011;7622;42.724;23.250;2023-03-01T05:33:10;1.73;;;1.63;;
15049;SDS011;7622;42.724;23.250;2023-03-01T05:35:39;2.07;;;1.97;;
15049;SDS011;7622;42.724;23.250;2023-03-01T05:38:07;2.00;;;1.90;;
15049;SDS011;7622;42.724;23.250;2023-03-01T05:40:34;3.10;;;2.80;;
15049;SDS011;7622;42.724;23.250;2023-03-01T05:43:01;2.87;;;2.67;;
15049;SDS011;7622;42.724;23.250;2023-03-01T05:45:30;3.77;;;2.77;;
15049;SDS011;7622;42.724;23.250;2023-03-01T05:47:58;5.00;;;3.23;;
15049;SDS011;7622;42.724;23.250;2023-03-01T05:50:27;4.03;;;3.73;;
15049;SDS011;7622;42.724;23.250;2023-03-01T05:52:57;4.73;;;3.87;;
15049;SDS011;7622;42.724;23.250;2023-03-01T05:55:25;3.80;;;3.50;;
15049;SDS011;7622;42.724;23.250;2023-03-01T05:57:52;4.30;;;3.90;;
15049;SDS011;7622;42.724;23.250;2023-03-01T06:00:20;5.03;;;4.33;;
15049;SDS011;7622;42.724;23.250;2023-03-01T06:02:48;4.20;;;3.80;;
15049;SDS011;7622;42.724;23.250;2023-03-01T06:05:17;4.60;;;4.13;;
15049;SDS011;7622;42.724;23.250;2023-03-01T06:07:46;4.63;;;4.03;;
15049;SDS011;7622;42.724;23.250;2023-03-01T06:10:13;5.80;;;5.30;;
15049;SDS011;7622;42.724;23.250;2023-03-01T06:12:41;5.90;;;5.33;;
15049;SDS011;7622;42.724;23.250;2023-03-01T06:15:09;6.73;;;4.27;;
15049;SDS011;7622;42.724;23.250;2023-03-01T06:17:38;5.77;;;4.70;;
15049;SDS011;7622;42.724;23.250;2023-03-01T06:20:07;6.27;;;4.80;;
15049;SDS011;7622;42.724;23.250;2023-03-01T06:22:36;5.20;;;4.70;;
15049;SDS011;7622;42.724;23.250;2023-03-01T06:25:04;6.43;;;5.17;;
15049;SDS011;7622;42.724;23.250;2023-03-01T06:27:32;8.30;;;6.17;;
15049;SDS011;7622;42.724;23.250;2023-03-01T06:29:59;5.37;;;4.83;;
15049;SDS011;7622;42.724;23.250;2023-03-01T06:32:26;7.10;;;5.80;;
15049;SDS011;7622;42.724;23.250;2023-03-01T06:34:53;6.33;;;5.07;;
15049;SDS011;7622;42.724;23.250;2023-03-01T06:37:20;5.47;;;4.97;;
15049;SDS011;7622;42.724;23.250;2023-03-01T06:39:47;5.43;;;4.93;;
15049;SDS011;7622;42.724;23.250;2023-03-01T06:42:15;5.63;;;5.10;;
15049;SDS011;7622;42.724;23.250;2023-03-01T06:44:43;4.90;;;4.40;;
15049;SDS011;7622;42.724;23.250;2023-03-01T06:47:10;5.03;;;4.53;;
15049;SDS011;7622;42.724;23.250;2023-03-01T06:49:37;3.67;;;3.30;;
15049;SDS011;7622;42.724;23.250;2023-03-01T06:52:04;4.60;;;4.20;;
15049;SDS011;7622;42.724;23.250;2023-03-01T06:54:31;3.80;;;3.43;;
15049;SDS011;7622;42.724;23.250;2023-03-01T06:56:58;4.83;;;3.67;;
15049;SDS011;7622;42.724;23.250;2023-03-01T06:59:27;3.60;;;3.30;;
15049;SDS011;7622;42.724;23.250;2023-03-01T07:01:57;5.13;;;3.83;;
15049;SDS011;7622;42.724;23.250;2023-03-01T07:04:26;3.93;;;3.47;;
15049;SDS011;7622;42.724;23.250;2023-03-01T07:06:55;3.80;;;3.37;;
15049;SDS011;7622;42.724;23.250;2023-03-01T07:09:22;5.50;;;3.33;;
15049;SDS011;7622;42.724;23.250;2023-03-01T07:11:50;3.60;;;3.40;;
15049;SDS011;7622;42.724;23.250;2023-03-01T07:14:17;3.60;;;3.30;;
15049;SDS011;7622;42.724;23.250;2023-03-01T07:16:46;3.57;;;3.27;;
15049;SDS011;7622;42.724;23.250;2023-03-01T07:19:13;3.30;;;3.00;;
15049;SDS011;7622;42.724;23.250;2023-03-01T07:21:39;5.73;;;4.13;;
15049;SDS011;7622;42.724;23.250;2023-03-01T07:24:06;4.00;;;3.00;;
15049;SDS011;7622;42.724;23.250;2023-03-01T07:26:34;4.43;;;3.97;;
15049;SDS011;7622;42.724;23.250;2023-03-01T07:29:01;5.57;;;3.87;;
15049;SDS011;7622;42.724;23.250;2023-03-01T07:31:27;4.63;;;3.90;;
15049;SDS011;7622;42.724;23.250;2023-03-01T07:33:56;4.13;;;3.70;;
15049;SDS011;7622;42.724;23.250;2023-03-01T07:36:23;3.87;;;3.47;;
15049;SDS011;7622;42.724;23.250;2023-03-01T07:38:51;3.40;;;3.20;;
15049;SDS011;7622;42.724;23.250;2023-03-01T07:41:18;4.60;;;3.17;;
15049;SDS011;7622;42.724;23.250;2023-03-01T07:43:45;3.50;;;2.90;;
15049;SDS011;7622;42.724;23.250;2023-03-01T07:46:11;2.87;;;2.67;;
15049;SDS011;7622;42.724;23.250;2023-03-01T07:48:38;4.27;;;3.20;;
15049;SDS011;7622;42.724;23.250;2023-03-01T07:51:06;4.57;;;3.53;;
15049;SDS011;7622;42.724;23.250;2023-03-01T07:53:34;5.93;;;4.03;;
15049;SDS011;7622;42.724;23.250;2023-03-01T07:56:01;3.70;;;3.40;;
15049;SDS011;7622;42.724;23.250;2023-03-01T07:58:29;4.20;;;3.13;;
15049;SDS011;7622;42.724;23.250;2023-03-01T08:00:57;4.00;;;3.20;;
15049;SDS011;7622;42.724;23.250;2023-03-01T08:03:27;4.60;;;3.47;;
15049;SDS011;7622;42.724;23.250;2023-03-01T08:05:54;4.33;;;3.93;;
15049;SDS011;7622;42.724;23.250;2023-03-01T08:08:22;6.03;;;3.37;;
15049;SDS011;7622;42.724;23.250;2023-03-01T08:10:49;3.23;;;2.70;;
15049;SDS011;7622;42.724;23.250;2023-03-01T08:13:16;2.93;;;2.73;;
15049;SDS011;7622;42.724;23.250;2023-03-01T08:15:47;2.90;;;2.67;;
15049;SDS011;7622;42.724;23.250;2023-03-01T08:18:14;2.60;;;2.40;;
15049;SDS011;7622;42.724;23.250;2023-03-01T08:20:41;3.40;;;2.90;;
15049;SDS011;7622;42.724;23.250;2023-03-01T08:23:07;3.90;;;3.50;;
15049;SDS011;7622;42.724;23.250;2023-03-01T08:25:36;4.20;;;2.80;;
15049;SDS011;7622;42.724;23.250;2023-03-01T08:28:03;3.33;;;3.03;;
15049;SDS011;7622;42.724;23.250;2023-03-01T08:30:30;6.53;;;2.70;;
15049;SDS011;7622;42.724;23.250;2023-03-01T08:32:57;2.83;;;2.57;;
15049;SDS011;7622;42.724;23.250;2023-03-01T08:35:24;2.63;;;2.53;;
15049;SDS011;7622;42.724;23.250;2023-03-01T08:37:51;2.77;;;1.90;;
15049;SDS011;7622;42.724;23.250;2023-03-01T08:40:18;2.90;;;2.00;;
15049;SDS011;7622;42.724;23.250;2023-03-01T08:42:46;2.83;;;2.10;;
15049;SDS011;7622;42.724;23.250;2023-03-01T08:45:13;3.60;;;2.50;;
15049;SDS011;7622;42.724;23.250;2023-03-01T08:47:43;4.03;;;2.53;;
15049;SDS011;7622;42.724;23.250;2023-03-01T08:50:10;2.80;;;2.60;;
15049;SDS011;7622;42.724;23.250;2023-03-01T08:52:37;3.00;;;2.80;;
15049;SDS011;7622;42.724;23.250;2023-03-01T08:55:04;3.83;;;3.10;;
15049;SDS011;7622;42.724;23.250;2023-03-01T08:57:32;6.33;;;3.60;;
15049;SDS011;7622;42.724;23.250;2023-03-01T09:00:00;3.87;;;3.47;;
15049;SDS011;7622;42.724;23.250;2023-03-01T09:02:28;4.00;;;3.30;;
15049;SDS011;7622;42.724;23.250;2023-03-01T09:04:55;5.20;;;3.90;;
15049;SDS011;7622;42.724;23.250;2023-03-01T09:07:22;3.17;;;2.97;;
15049;SDS011;7622;42.724;23.250;2023-03-01T09:09:53;5.70;;;3.10;;
15049;SDS011;7622;42.724;23.250;2023-03-01T09:12:20;3.43;;;3.13;;
15049;SDS011;7622;42.724;23.250;2023-03-01T09:14:47;3.77;;;3.47;;
15049;SDS011;7622;42.724;23.250;2023-03-01T09:17:15;2.87;;;2.67;;
15049;SDS011;7622;42.724;23.250;2023-03-01T09:19:42;3.20;;;2.70;;
15049;SDS011;7622;42.724;23.250;2023-03-01T09:22:09;2.70;;;2.50;;
15049;SDS011;7622;42.724;23.250;2023-03-01T09:24:36;2.70;;;2.50;;
15049;SDS011;7622;42.724;23.250;2023-03-01T09:27:02;2.63;;;2.43;;
15049;SDS011;7622;42.724;23.250;2023-03-01T09:29:33;3.63;;;3.27;;
15049;SDS011;7622;42.724;23.250;2023-03-01T09:32:01;2.00;;;1.90;;
15049;SDS011;7622;42.724;23.250;2023-03-01T09:34:29;2.50;;;2.40;;
15049;SDS011;7622;42.724;23.250;2023-03-01T09:36:57;2.40;;;2.20;;
15049;SDS011;7622;42.724;23.250;2023-03-01T09:39:25;2.37;;;2.17;;
15049;SDS011;7622;42.724;23.250;2023-03-01T09:41:54;2.37;;;2.17;;
15049;SDS011;7622;42.724;23.250;2023-03-01T09:44:31;3.07;;;2.87;;
15049;SDS011;7622;42.724;23.250;2023-03-01T09:47:04;2.33;;;2.17;;
15049;SDS011;7622;42.724;23.250;2023-03-01T09:49:33;2.70;;;2.50;;
15049;SDS011;7622;42.724;23.250;2023-03-01T09:52:09;2.53;;;2.33;;
15049;SDS011;7622;42.724;23.250;2023-03-01T09:54:46;3.23;;;2.13;;
15049;SDS011;7622;42.724;23.250;2023-03-01T09:57:16;1.93;;;1.73;;
15049;SDS011;7622;42.724;23.250;2023-03-01T09:59:55;3.53;;;2.10;;
15049;SDS011;7622;42.724;23.250;2023-03-01T10:02:31;2.30;;;2.20;;
15049;SDS011;7622;42.724;23.250;2023-03-01T10:05:09;1.70;;;1.60;;
15049;SDS011;7622;42.724;23.250;2023-03-01T10:07:46;1.83;;;1.73;;
15049;SDS011;7622;42.724;23.250;2023-03-01T10:10:23;2.10;;;2.00;;
15049;SDS011;7622;42.724;23.250;2023-03-01T10:12:58;4.57;;;2.37;;
15049;SDS011;7622;42.724;23.250;2023-03-01T10:15:32;2.30;;;2.20;;
15049;SDS011;7622;42.724;23.250;2023-03-01T10:18:04;1.70;;;1.60;;
15049;SDS011;7622;42.724;23.250;2023-03-01T10:20:42;2.20;;;2.10;;
15049;SDS011;7622;42.724;23.250;2023-03-01T10:23:13;2.73;;;1.83;;
15049;SDS011;7622;42.724;23.250;2023-03-01T10:25:44;2.37;;;1.60;;
15049;SDS011;7622;42.724;23.250;2023-03-01T10:28:20;1.20;;;1.10;;
15049;SDS011;7622;42.724;23.250;2023-03-01T10:30:51;2.77;;;1.77;;
15049;SDS011;7622;42.724;23.250;2023-03-01T10:33:20;2.40;;;2.10;;
15049;SDS011;7622;42.724;23.250;2023-03-01T10:35:50;2.90;;;2.03;;
15049;SDS011;7622;42.724;23.250;2023-03-01T10:38:18;2.10;;;2.00;;
15049;SDS011;7622;42.724;23.250;2023-03-01T10:40:53;2.00;;;1.63;;
15049;SDS011;7622;42.724;23.250;2023-03-01T10:43:22;2.27;;;2.07;;
15049;SDS011;7622;42.724;23.250;2023-03-01T10:45:49;2.40;;;1.90;;
15049;SDS011;7622;42.724;23.250;2023-03-01T10:48:18;2.93;;;1.93;;
15049;SDS011;7622;42.724;23.250;2023-03-01T10:50:49;1.90;;;1.63;;
15049;SDS011;7622;42.724;23.250;2023-03-01T10:53:32;2.00;;;1.90;;
15049;SDS011;7622;42.724;23.250;2023-03-01T10:56:02;2.10;;;1.87;;
15049;SDS011;7622;42.724;23.250;2023-03-01T10:58:30;2.23;;;2.00;;
15049;SDS011;7622;42.724;23.250;2023-03-01T11:00:59;2.03;;;1.80;;
15049;SDS011;7622;42.724;23.250;2023-03-01T11:03:27;2.37;;;1.60;;
15049;SDS011;7622;42.724;23.250;2023-03-01T11:05:58;2.33;;;1.40;;
15049;SDS011;7622;42.724;23.250;2023-03-01T11:08:34;1.63;;;1.53;;
15049;SDS011;7622;42.724;23.250;2023-03-01T11:11:05;0.90;;;0.90;;
15049;SDS011;7622;42.724;23.250;2023-03-01T11:13:40;0.87;;;0.80;;
15049;SDS011;7622;42.724;23.250;2023-03-01T11:16:22;1.30;;;1.30;;
15049;SDS011;7622;42.724;23.250;2023-03-01T11:19:01;1.13;;;1.13;;
15049;SDS011;7622;42.724;23.250;2023-03-01T11:21:42;1.37;;;1.27;;
15049;SDS011;7622;42.724;23.250;2023-03-01T11:24:16;1.47;;;1.37;;
15049;SDS011;7622;42.724;23.250;2023-03-01T11:26:47;2.43;;;1.70;;
15049;SDS011;7622;42.724;23.250;2023-03-01T11:29:21;1.80;;;1.50;;
15049;SDS011;7622;42.724;23.250;2023-03-01T11:31:54;1.63;;;1.53;;
15049;SDS011;7622;42.724;23.250;2023-03-01T11:34:28;1.93;;;1.83;;
15049;SDS011;7622;42.724;23.250;2023-03-01T11:37:09;2.60;;;1.87;;
15049;SDS011;7622;42.724;23.250;2023-03-01T11:39:43;2.03;;;1.83;;
15049;SDS011;7622;42.724;23.250;2023-03-01T11:42:17;2.53;;;1.90;;
15049;SDS011;7622;42.724;23.250;2023-03-01T11:44:54;1.70;;;1.60;;
15049;SDS011;7622;42.724;23.250;2023-03-01T11:47:33;1.87;;;1.77;;
15049;SDS011;7622;42.724;23.250;2023-03-01T11:50:20;1.47;;;1.37;;
15049;SDS011;7622;42.724;23.250;2023-03-01T11:56:10;1.60;;;1.50;;
15049;SDS011;7622;42.724;23.250;2023-03-01T11:58:51;4.60;;;2.50;;
15049;SDS011;7622;42.724;23.250;2023-03-01T12:01:32;2.83;;;1.83;;
15049;SDS011;7622;42.724;23.250;2023-03-01T12:04:30;1.30;;;1.20;;
15049;SDS011;7622;42.724;23.250;2023-03-01T12:07:10;2.93;;;1.73;;
15049;SDS011;7622;42.724;23.250;2023-03-01T12:09:51;3.43;;;1.77;;
15049;SDS011;7622;42.724;23.250;2023-03-01T12:12:34;1.70;;;1.60;;
15049;SDS011;7622;42.724;23.250;2023-03-01T12:15:28;2.63;;;2.00;;
15049;SDS011;7622;42.724;23.250;2023-03-01T12:18:16;2.27;;;1.93;;
15049;SDS011;7622;42.724;23.250;2023-03-01T12:20:58;4.23;;;2.37;;
15049;SDS011;7622;42.724;23.250;2023-03-01T12:26:27;2.30;;;2.10;;
15049;SDS011;7622;42.724;23.250;2023-03-01T12:29:09;2.50;;;2.17;;
15049;SDS011;7622;42.724;23.250;2023-03-01T12:31:55;1.93;;;1.83;;
15049;SDS011;7622;42.724;23.250;2023-03-01T12:34:39;3.88;;;2.85;;
15049;SDS011;7622;42.724;23.250;2023-03-01T12:37:32;2.97;;;2.13;;
15049;SDS011;7622;42.724;23.250;2023-03-01T12:40:23;3.47;;;2.40;;
15049;SDS011;7622;42.724;23.250;2023-03-01T12:43:17;2.63;;;2.43;;
15049;SDS011;7622;42.724;23.250;2023-03-01T12:46:03;3.67;;;2.77;;
15049;SDS011;7622;42.724;23.250;2023-03-01T12:48:40;4.47;;;2.83;;
15049;SDS011;7622;42.724;23.250;2023-03-01T12:51:14;2.90;;;2.70;;
15049;SDS011;7622;42.724;23.250;2023-03-01T12:53:45;3.13;;;2.73;;
15049;SDS011;7622;42.724;23.250;2023-03-01T12:56:15;3.27;;;2.80;;
15049;SDS011;7622;42.724;23.250;2023-03-01T12:58:49;4.37;;;2.90;;
15049;SDS011;7622;42.724;23.250;2023-03-01T13:01:26;4.70;;;2.90;;
15049;SDS011;7622;42.724;23.250;2023-03-01T13:04:19;5.00;;;3.50;;
15049;SDS011;7622;42.724;23.250;2023-03-01T13:07:05;2.90;;;2.70;;
15049;SDS011;7622;42.724;23.250;2023-03-01T13:09:44;3.53;;;3.23;;
15049;SDS011;7622;42.724;23.250;2023-03-01T13:17:59;5.10;;;3.10;;
15049;SDS011;7622;42.724;23.250;2023-03-01T13:20:29;3.20;;;3.00;;
15049;SDS011;7622;42.724;23.250;2023-03-01T13:23:06;2.50;;;2.40;;
15049;SDS011;7622;42.724;23.250;2023-03-01T13:25:45;4.00;;;3.67;;
15049;SDS011;7622;42.724;23.250;2023-03-01T13:28:37;8.73;;;4.07;;
15049;SDS011;7622;42.724;23.250;2023-03-01T13:31:09;4.50;;;4.00;;
15049;SDS011;7622;42.724;23.250;2023-03-01T13:33:45;4.07;;;3.73;;
15049;SDS011;7622;42.724;23.250;2023-03-01T13:39:27;3.13;;;2.93;;
15049;SDS011;7622;42.724;23.250;2023-03-01T13:41:57;3.07;;;2.87;;
15049;SDS011;7622;42.724;23.250;2023-03-01T13:44:26;3.17;;;2.97;;
15049;SDS011;7622;42.724;23.250;2023-03-01T13:46:58;3.27;;;2.97;;
15049;SDS011;7622;42.724;23.250;2023-03-01T13:49:29;3.47;;;3.17;;
15049;SDS011;7622;42.724;23.250;2023-03-01T13:52:02;4.13;;;3.73;;
15049;SDS011;7622;42.724;23.250;2023-03-01T13:54:30;3.70;;;3.40;;
15049;SDS011;7622;42.724;23.250;2023-03-01T13:56:59;3.60;;;3.13;;
15049;SDS011;7622;42.724;23.250;2023-03-01T13:59:27;3.80;;;3.40;;
15049;SDS011;7622;42.724;23.250;2023-03-01T14:01:56;5.33;;;3.23;;
15049;SDS011;7622;42.724;23.250;2023-03-01T14:04:26;4.40;;;3.43;;
15049;SDS011;7622;42.724;23.250;2023-03-01T14:07:08;3.43;;;2.93;;
15049;SDS011;7622;42.724;23.250;2023-03-01T14:09:37;3.40;;;3.10;;
15049;SDS011;7622;42.724;23.250;2023-03-01T14:12:19;2.63;;;2.43;;
15049;SDS011;7622;42.724;23.250;2023-03-01T14:14:54;3.77;;;2.30;;
15049;SDS011;7622;42.724;23.250;2023-03-01T14:17:40;2.87;;;2.63;;
15049;SDS011;7622;42.724;23.250;2023-03-01T14:20:14;3.73;;;3.33;;
15049;SDS011;7622;42.724;23.250;2023-03-01T14:22:44;3.60;;;3.30;;
15049;SDS011;7622;42.724;23.250;2023-03-01T14:25:20;4.80;;;4.30;;
15049;SDS011;7622;42.724;23.250;2023-03-01T14:27:54;4.87;;;3.50;;
15049;SDS011;7622;42.724;23.250;2023-03-01T14:30:24;2.93;;;2.73;;
15049;SDS011;7622;42.724;23.250;2023-03-01T14:32:55;6.17;;;3.43;;
15049;SDS011;7622;42.724;23.250;2023-03-01T14:35:25;3.73;;;3.43;;
15049;SDS011;7622;42.724;23.250;2023-03-01T14:37:53;4.30;;;2.70;;
15049;SDS011;7622;42.724;23.250;2023-03-01T14:40:21;5.73;;;3.10;;
15049;SDS011;7622;42.724;23.250;2023-03-01T14:42:51;3.60;;;3.27;;
15049;SDS011;7622;42.724;23.250;2023-03-01T14:45:19;3.67;;;3.37;;
15049;SDS011;7622;42.724;23.250;2023-03-01T14:47:46;3.50;;;3.20;;
15049;SDS011;7622;42.724;23.250;2023-03-01T14:50:24;3.17;;;2.87;;
15049;SDS011;7622;42.724;23.250;2023-03-01T14:52:53;4.63;;;3.60;;
15049;SDS011;7622;42.724;23.250;2023-03-01T14:55:29;4.60;;;2.90;;
15049;SDS011;7622;42.724;23.250;2023-03-01T14:57:59;4.33;;;3.90;;
15049;SDS011;7622;42.724;23.250;2023-03-01T15:00:30;4.23;;;3.83;;
15049;SDS011;7622;42.724;23.250;2023-03-01T15:03:00;4.57;;;3.10;;
15049;SDS011;7622;42.724;23.250;2023-03-01T15:05:36;5.00;;;3.53;;
15049;SDS011;7622;42.724;23.250;2023-03-01T15:08:03;6.37;;;3.77;;
15049;SDS011;7622;42.724;23.250;2023-03-01T15:10:32;4.30;;;2.90;;
15049;SDS011;7622;42.724;23.250;2023-03-01T15:13:09;3.27;;;2.93;;
15049;SDS011;7622;42.724;23.250;2023-03-01T15:15:38;5.23;;;3.00;;
15049;SDS011;7622;42.724;23.250;2023-03-01T15:18:14;3.33;;;3.03;;
15049;SDS011;7622;42.724;23.250;2023-03-01T15:20:45;5.70;;;3.73;;
15049;SDS011;7622;42.724;23.250;2023-03-01T15:23:18;3.43;;;3.07;;